createdAt,value
2018-12-29T00:01:11.666Z,54.63
2018-12-29T00:03:40.897Z,54.63
2018-12-29T00:06:10.066Z,57.43
2018-12-29T00:08:39.227Z,59.37
2018-12-29T00:11:08.405Z,56.03
2018-12-29T00:13:37.905Z,56.43
2018-12-29T00:16:07.117Z,55.57
2018-12-29T00:18:36.284Z,56.50
2018-12-29T00:21:05.464Z,59.27
2018-12-29T00:23:34.604Z,56.50
2018-12-29T00:26:03.748Z,55.07
2018-12-29T00:28:32.998Z,59.47
2018-12-29T00:31:02.136Z,50.07
2018-12-29T00:33:31.315Z,50.60
2018-12-29T00:36:00.475Z,53.40
2018-12-29T00:38:29.633Z,58.70
2018-12-29T00:40:58.871Z,54.53
2018-12-29T00:43:28.060Z,58.63
2018-12-29T00:45:57.244Z,56.90
2018-12-29T00:48:26.382Z,56.30
2018-12-29T00:50:55.692Z,59.83
2018-12-29T00:53:24.842Z,55.73
2018-12-29T00:55:54.069Z,61.37
2018-12-29T00:58:23.233Z,57.30
2018-12-29T01:00:52.501Z,56.23
2018-12-29T01:03:21.727Z,59.87
2018-12-29T01:05:50.853Z,55.43
2018-12-29T01:08:20.011Z,58.67
2018-12-29T01:10:49.179Z,61.47
2018-12-29T01:13:18.311Z,59.67
2018-12-29T01:15:47.452Z,61.30
2018-12-29T01:18:16.626Z,64.13
2018-12-29T01:20:45.807Z,57.03
2018-12-29T01:23:14.960Z,59.97
2018-12-29T01:25:44.152Z,61.07
2018-12-29T01:28:13.295Z,58.57
2018-12-29T01:30:42.450Z,55.80
2018-12-29T01:33:11.611Z,59.53
2018-12-29T01:35:40.788Z,60.53
2018-12-29T01:38:09.930Z,63.37
2018-12-29T01:40:39.064Z,62.40
2018-12-29T01:43:08.190Z,65.10
2018-12-29T01:45:37.354Z,61.73
2018-12-29T01:48:06.532Z,60.37
2018-12-29T01:50:35.665Z,60.27
2018-12-29T01:53:04.839Z,59.93
2018-12-29T01:55:34.067Z,56.60
2018-12-29T01:58:03.290Z,64.03
2018-12-29T02:00:32.407Z,65.33
2018-12-29T02:03:01.542Z,64.07
2018-12-29T02:05:30.732Z,57.97
2018-12-29T02:07:59.916Z,58.67
2018-12-29T02:10:29.039Z,63.40
2018-12-29T02:12:58.173Z,60.63
2018-12-29T02:15:27.340Z,60.83
2018-12-29T02:17:56.506Z,64.17
2018-12-29T02:20:27.260Z,62.17
2018-12-29T02:22:56.367Z,60.80
2018-12-29T02:25:25.496Z,63.10
2018-12-29T02:27:55.770Z,61.93
2018-12-29T02:30:24.931Z,58.47
2018-12-29T02:32:54.147Z,58.07
2018-12-29T02:35:23.309Z,56.97
2018-12-29T02:37:52.556Z,66.20
2018-12-29T02:40:21.712Z,60.03
2018-12-29T02:42:50.922Z,61.27
2018-12-29T02:45:20.170Z,62.17
2018-12-29T02:47:49.314Z,60.93
2018-12-29T02:50:18.448Z,63.20
2018-12-29T02:52:47.647Z,60.97
2018-12-29T02:55:16.804Z,62.63
2018-12-29T02:57:45.989Z,61.70
2018-12-29T03:00:15.134Z,59.93
2018-12-29T03:02:44.270Z,65.53
2018-12-29T03:05:13.507Z,62.70
2018-12-29T03:07:42.712Z,67.87
2018-12-29T03:10:11.920Z,64.77
2018-12-29T03:12:41.076Z,61.83
2018-12-29T03:15:10.248Z,64.70
2018-12-29T03:17:39.465Z,70.50
2018-12-29T03:20:08.648Z,62.73
2018-12-29T03:22:37.785Z,68.60
2018-12-29T03:25:06.884Z,67.33
2018-12-29T03:27:36.150Z,62.63
2018-12-29T03:30:05.478Z,66.03
2018-12-29T03:32:34.668Z,70.13
2018-12-29T03:35:03.814Z,61.87
2018-12-29T03:37:33.009Z,69.67
2018-12-29T03:40:02.186Z,67.07
2018-12-29T03:42:31.435Z,62.47
2018-12-29T03:45:00.596Z,66.43
2018-12-29T03:47:29.737Z,65.13
2018-12-29T03:49:58.884Z,70.60
2018-12-29T03:52:27.990Z,65.80
2018-12-29T03:54:57.173Z,63.30
2018-12-29T03:57:26.364Z,65.30
2018-12-29T03:59:55.593Z,58.90
2018-12-29T04:02:24.727Z,71.20
2018-12-29T04:04:53.950Z,58.70
2018-12-29T04:07:23.088Z,64.43
2018-12-29T04:09:52.313Z,60.70
2018-12-29T04:12:24.342Z,65.83
2018-12-29T04:14:53.629Z,59.20
2018-12-29T04:17:22.848Z,66.13
2018-12-29T04:19:52.073Z,63.27
2018-12-29T04:22:21.314Z,60.80
2018-12-29T04:24:50.440Z,60.77
2018-12-29T04:27:19.620Z,62.03
2018-12-29T04:29:48.816Z,63.30
2018-12-29T04:32:17.983Z,59.37
2018-12-29T04:34:47.162Z,59.30
2018-12-29T04:37:16.305Z,55.97
2018-12-29T04:39:45.449Z,56.23
2018-12-29T04:42:14.693Z,55.97
2018-12-29T04:44:43.891Z,56.77
2018-12-29T04:47:13.038Z,54.17
2018-12-29T04:49:42.212Z,54.03
2018-12-29T04:52:11.388Z,51.80
2018-12-29T04:54:40.639Z,50.80
2018-12-29T04:57:09.904Z,49.63
2018-12-29T04:59:39.073Z,54.43
2018-12-29T05:02:08.236Z,51.40
2018-12-29T05:04:37.513Z,51.33
2018-12-29T05:07:06.792Z,49.30
2018-12-29T05:09:36.026Z,49.63
2018-12-29T05:12:05.154Z,47.70
2018-12-29T05:14:34.321Z,54.67
2018-12-29T05:17:03.556Z,49.80
2018-12-29T05:19:32.765Z,55.63
2018-12-29T05:22:01.869Z,48.87
2018-12-29T05:24:30.978Z,53.53
2018-12-29T05:27:00.124Z,54.50
2018-12-29T05:29:29.257Z,53.17
2018-12-29T05:31:58.406Z,55.40
2018-12-29T05:34:27.598Z,48.67
2018-12-29T05:36:56.789Z,54.90
2018-12-29T05:39:25.941Z,47.33
2018-12-29T05:41:55.072Z,53.40
2018-12-29T05:44:24.219Z,52.27
2018-12-29T05:46:53.390Z,54.17
2018-12-29T05:49:22.634Z,55.07
2018-12-29T05:51:51.781Z,52.93
2018-12-29T05:54:20.886Z,47.73
2018-12-29T05:56:50.017Z,55.30
2018-12-29T05:59:19.139Z,53.40
2018-12-29T06:01:48.310Z,55.10
2018-12-29T06:04:17.460Z,52.70
2018-12-29T06:06:46.612Z,52.07
2018-12-29T06:09:15.750Z,54.30
2018-12-29T06:11:44.942Z,54.53
2018-12-29T06:14:14.107Z,48.57
2018-12-29T06:16:43.257Z,60.63
2018-12-29T06:19:12.404Z,60.87
2018-12-29T06:21:41.648Z,56.27
2018-12-29T06:24:10.751Z,56.77
2018-12-29T06:26:39.862Z,60.83
2018-12-29T06:29:09.012Z,52.37
2018-12-29T06:31:38.176Z,57.33
2018-12-29T06:34:07.321Z,54.07
2018-12-29T06:36:36.459Z,59.47
2018-12-29T06:39:07.568Z,58.27
2018-12-29T06:41:36.721Z,63.43
2018-12-29T06:44:05.924Z,54.93
2018-12-29T06:46:35.393Z,56.50
2018-12-29T06:49:04.562Z,58.87
2018-12-29T06:51:33.711Z,60.53
2018-12-29T06:54:02.861Z,59.73
2018-12-29T06:56:32.050Z,62.90
2018-12-29T06:59:01.161Z,63.27
2018-12-29T07:01:30.329Z,54.17
2018-12-29T07:03:59.450Z,61.80
2018-12-29T07:06:28.587Z,62.50
2018-12-29T07:08:57.737Z,60.30
2018-12-29T07:11:26.870Z,58.80
2018-12-29T07:13:56.015Z,62.23
2018-12-29T07:16:25.117Z,64.00
2018-12-29T07:18:54.381Z,62.03
2018-12-29T07:21:23.531Z,67.93
2018-12-29T07:23:52.752Z,67.83
2018-12-29T07:26:21.950Z,67.90
2018-12-29T07:28:51.144Z,71.03
2018-12-29T07:31:20.355Z,63.33
2018-12-29T07:33:49.507Z,61.33
2018-12-29T07:36:18.689Z,61.33
2018-12-29T07:38:47.843Z,61.07
2018-12-29T07:41:17.043Z,64.03
2018-12-29T07:43:46.180Z,67.77
2018-12-29T07:46:15.327Z,63.20
2018-12-29T07:48:44.507Z,59.57
2018-12-29T07:51:13.657Z,64.53
2018-12-29T07:53:42.833Z,72.23
2018-12-29T07:56:12.027Z,61.97
2018-12-29T07:58:41.164Z,69.50
2018-12-29T08:01:10.317Z,66.63
2018-12-29T08:03:39.527Z,65.20
2018-12-29T08:06:08.651Z,74.80
2018-12-29T08:08:37.799Z,66.43
2018-12-29T08:11:06.961Z,69.73
2018-12-29T08:13:36.381Z,64.20
2018-12-29T08:16:05.563Z,67.53
2018-12-29T08:18:34.724Z,64.37
2018-12-29T08:21:03.874Z,68.53
2018-12-29T08:23:33.033Z,63.80
2018-12-29T08:26:02.202Z,70.57
2018-12-29T08:28:31.296Z,65.83
2018-12-29T08:31:00.442Z,65.93
2018-12-29T08:33:29.580Z,67.17
2018-12-29T08:35:58.724Z,67.67
2018-12-29T08:38:27.936Z,65.73
2018-12-29T08:40:57.077Z,65.67
2018-12-29T08:43:26.219Z,68.07
2018-12-29T08:45:55.565Z,67.33
2018-12-29T08:48:24.736Z,64.93
2018-12-29T08:50:53.996Z,71.20
2018-12-29T08:53:23.193Z,68.03
2018-12-29T08:55:52.465Z,71.40
2018-12-29T08:58:21.722Z,69.23
2018-12-29T09:00:50.868Z,72.30
2018-12-29T09:03:20.043Z,74.30
2018-12-29T09:05:49.219Z,66.77
2018-12-29T09:08:18.344Z,76.50
2018-12-29T09:10:47.830Z,74.37
2018-12-29T09:13:16.946Z,73.03
2018-12-29T09:15:46.061Z,76.57
2018-12-29T09:18:15.235Z,75.90
2018-12-29T09:20:44.420Z,71.90
2018-12-29T09:23:13.570Z,70.87
2018-12-29T09:25:42.714Z,75.63
2018-12-29T09:28:11.902Z,76.63
2018-12-29T09:30:41.024Z,73.90
2018-12-29T09:33:10.149Z,76.13
2018-12-29T09:35:39.361Z,74.00
2018-12-29T09:38:08.547Z,70.93
2018-12-29T09:40:37.728Z,69.70
2018-12-29T09:43:06.824Z,75.03
2018-12-29T09:45:35.987Z,74.33
2018-12-29T09:48:05.201Z,74.67
2018-12-29T09:50:34.356Z,73.13
2018-12-29T09:53:03.487Z,71.67
2018-12-29T09:55:32.671Z,80.50
2018-12-29T09:58:01.786Z,75.77
2018-12-29T10:00:31.008Z,79.60
2018-12-29T10:03:00.141Z,75.37
2018-12-29T10:05:29.326Z,81.90
2018-12-29T10:07:58.465Z,78.57
2018-12-29T10:10:27.624Z,73.50
2018-12-29T10:12:56.782Z,72.30
2018-12-29T10:15:25.945Z,76.20
2018-12-29T10:17:55.217Z,79.57
2018-12-29T10:20:25.015Z,80.03
2018-12-29T10:22:54.362Z,76.97
2018-12-29T10:25:23.510Z,75.77
2018-12-29T10:27:52.799Z,72.90
2018-12-29T10:30:22.036Z,71.57
2018-12-29T10:32:51.219Z,71.83
2018-12-29T10:35:20.369Z,72.40
2018-12-29T10:37:49.600Z,75.20
2018-12-29T10:40:18.851Z,78.90
2018-12-29T10:42:48.013Z,85.93
2018-12-29T10:45:17.160Z,75.17
2018-12-29T10:47:46.309Z,75.77
2018-12-29T10:50:15.460Z,83.60
2018-12-29T10:52:44.601Z,82.50
2018-12-29T10:55:14.034Z,82.43
2018-12-29T10:57:43.200Z,81.07
2018-12-29T11:00:12.581Z,85.83
2018-12-29T11:02:41.907Z,78.10
2018-12-29T11:05:11.049Z,78.53
2018-12-29T11:07:40.238Z,75.97
2018-12-29T11:10:09.457Z,70.37
2018-12-29T11:12:38.601Z,79.60
2018-12-29T11:15:07.829Z,74.47
2018-12-29T11:17:42.133Z,77.57
2018-12-29T11:20:07.955Z,69.70
2018-12-29T11:22:37.081Z,69.40
2018-12-29T11:25:06.369Z,67.53
2018-12-29T11:27:35.510Z,66.47
2018-12-29T11:30:05.025Z,62.40
2018-12-29T11:32:34.181Z,63.17
2018-12-29T11:35:03.395Z,66.07
2018-12-29T11:37:32.573Z,59.97
2018-12-29T11:40:01.761Z,59.10
2018-12-29T11:42:30.919Z,57.33
2018-12-29T11:45:00.175Z,55.50
2018-12-29T11:47:29.353Z,58.40
2018-12-29T11:49:58.547Z,58.17
2018-12-29T11:52:27.725Z,54.73
2018-12-29T11:54:56.905Z,56.07
2018-12-29T11:57:26.138Z,58.13
2018-12-29T11:59:55.345Z,55.03
2018-12-29T12:02:24.836Z,50.83
2018-12-29T12:04:54.178Z,55.20
2018-12-29T12:07:23.440Z,54.63
2018-12-29T12:09:52.689Z,51.63
2018-12-29T12:12:21.952Z,51.90
2018-12-29T12:14:51.506Z,48.83
2018-12-29T12:17:20.783Z,51.20
2018-12-29T12:19:49.955Z,52.73
2018-12-29T12:22:19.204Z,52.33
2018-12-29T12:24:48.486Z,47.77
2018-12-29T12:27:17.723Z,48.33
2018-12-29T12:29:47.321Z,52.67
2018-12-29T12:32:16.533Z,48.00
2018-12-29T12:34:45.779Z,47.53
2018-12-29T12:37:15.029Z,46.30
2018-12-29T12:39:44.649Z,45.50
2018-12-29T12:42:13.911Z,44.10
2018-12-29T12:44:44.086Z,46.97
2018-12-29T12:47:13.672Z,45.97
2018-12-29T12:49:42.929Z,44.87
2018-12-29T12:52:12.172Z,47.50
2018-12-29T12:54:41.435Z,40.57
2018-12-29T12:57:11.119Z,50.13
2018-12-29T12:59:40.667Z,45.83
2018-12-29T13:02:09.904Z,43.07
2018-12-29T13:04:39.477Z,44.63
2018-12-29T13:07:08.805Z,45.00
2018-12-29T13:09:37.936Z,44.87
2018-12-29T13:12:07.203Z,43.27
2018-12-29T13:14:36.430Z,42.73
2018-12-29T13:17:06.122Z,44.77
2018-12-29T13:19:35.364Z,40.33
2018-12-29T13:22:04.631Z,43.43
2018-12-29T13:24:33.872Z,44.37
2018-12-29T13:27:03.127Z,47.53
2018-12-29T13:29:32.312Z,40.73
2018-12-29T13:32:01.749Z,40.40
2018-12-29T13:34:30.987Z,40.30
2018-12-29T13:37:00.215Z,42.97
2018-12-29T13:39:29.535Z,40.70
2018-12-29T13:41:58.782Z,39.23
2018-12-29T13:44:27.953Z,40.10
2018-12-29T13:46:57.221Z,37.70
2018-12-29T13:49:26.458Z,41.53
2018-12-29T13:51:56.145Z,44.07
2018-12-29T13:54:25.352Z,37.57
2018-12-29T13:56:54.738Z,40.13
2018-12-29T13:59:23.875Z,38.07
2018-12-29T14:01:53.162Z,37.80
2018-12-29T14:04:22.310Z,40.30
2018-12-29T14:06:51.452Z,35.37
2018-12-29T14:09:20.592Z,38.33
2018-12-29T14:11:49.748Z,36.70
2018-12-29T14:14:18.892Z,35.77
2018-12-29T14:16:48.148Z,34.93
2018-12-29T14:19:17.351Z,35.87
2018-12-29T14:21:46.561Z,33.40
2018-12-29T14:24:15.777Z,34.97
2018-12-29T14:26:45.431Z,33.00
2018-12-29T14:29:14.716Z,32.57
2018-12-29T14:31:43.991Z,29.67
2018-12-29T14:34:13.200Z,32.40
2018-12-29T14:36:42.545Z,31.90
2018-12-29T14:39:12.131Z,32.07
2018-12-29T14:41:41.345Z,33.23
2018-12-29T14:44:10.574Z,33.07
2018-12-29T14:46:39.787Z,32.33
2018-12-29T14:49:09.168Z,32.80
2018-12-29T14:51:38.343Z,33.70
2018-12-29T14:54:07.598Z,34.40
2018-12-29T14:56:36.813Z,34.90
2018-12-29T14:59:06.028Z,32.77
2018-12-29T15:01:35.224Z,33.70
2018-12-29T15:04:04.377Z,35.53
2018-12-29T15:06:33.646Z,33.53
2018-12-29T15:09:02.823Z,36.13
2018-12-29T15:11:32.033Z,37.33
2018-12-29T15:14:01.283Z,36.00
2018-12-29T15:16:30.491Z,36.60
2018-12-29T15:18:59.726Z,34.80
2018-12-29T15:21:29.381Z,36.77
2018-12-29T15:23:58.661Z,33.07
2018-12-29T15:26:27.890Z,31.83
2018-12-29T15:28:57.066Z,29.87
2018-12-29T15:31:26.310Z,31.37
2018-12-29T15:33:55.784Z,29.50
2018-12-29T15:36:25.380Z,29.43
2018-12-29T15:38:54.808Z,26.50
2018-12-29T15:41:24.170Z,27.10
2018-12-29T15:43:54.115Z,23.90
2018-12-29T15:46:23.551Z,24.33
2018-12-29T15:48:52.899Z,25.03
2018-12-29T15:51:22.785Z,22.43
2018-12-29T15:53:54.518Z,23.67
2018-12-29T15:56:24.062Z,22.90
2018-12-29T15:58:53.398Z,23.20
2018-12-29T16:01:23.118Z,23.53
2018-12-29T16:03:52.497Z,22.30
2018-12-29T16:06:21.770Z,20.70
2018-12-29T16:08:51.023Z,17.83
2018-12-29T16:11:26.128Z,18.43
2018-12-29T16:13:51.461Z,16.33
2018-12-29T16:16:20.692Z,17.83
2018-12-29T16:18:49.903Z,18.70
2018-12-29T16:21:19.561Z,18.50
2018-12-29T16:23:48.837Z,18.20
2018-12-29T16:26:18.140Z,18.10
2018-12-29T16:28:47.848Z,19.10
2018-12-29T16:31:17.138Z,19.07
2018-12-29T16:33:53.662Z,20.33
2018-12-29T16:36:17.354Z,19.00
2018-12-29T16:38:46.645Z,18.27
2018-12-29T16:41:15.940Z,19.70
2018-12-29T16:43:45.180Z,17.93
2018-12-29T16:46:14.411Z,20.13
2018-12-29T16:48:43.708Z,18.90
2018-12-29T16:51:12.950Z,17.57
2018-12-29T16:53:42.529Z,17.57
2018-12-29T16:56:11.856Z,17.67
2018-12-29T16:58:41.115Z,18.00
2018-12-29T17:01:10.346Z,17.83
2018-12-29T17:03:39.876Z,19.27
2018-12-29T17:06:09.117Z,18.17
2018-12-29T17:08:38.353Z,18.50
2018-12-29T17:11:07.585Z,17.50
2018-12-29T17:13:37.198Z,21.53
2018-12-29T17:16:06.481Z,17.87
2018-12-29T17:18:35.744Z,20.70
2018-12-29T17:21:05.356Z,21.67
2018-12-29T17:23:34.613Z,19.27
2018-12-29T17:26:03.934Z,21.17
2018-12-29T17:28:33.486Z,20.53
2018-12-29T17:31:02.737Z,24.20
2018-12-29T17:33:31.986Z,24.47
2018-12-29T17:36:01.211Z,25.40
2018-12-29T17:38:30.517Z,24.40
2018-12-29T17:41:00.171Z,25.63
2018-12-29T17:43:29.464Z,24.47
2018-12-29T17:45:58.670Z,27.63
2018-12-29T17:48:27.925Z,26.30
2018-12-29T17:50:57.082Z,26.00
2018-12-29T17:53:26.638Z,26.73
2018-12-29T17:55:55.936Z,24.70
2018-12-29T17:58:25.177Z,31.87
2018-12-29T18:00:54.406Z,28.53
2018-12-29T18:03:23.645Z,26.60
2018-12-29T18:05:53.129Z,29.50
2018-12-29T18:08:22.372Z,31.83
2018-12-29T18:10:51.617Z,29.80
2018-12-29T18:13:21.155Z,31.00
2018-12-29T18:15:50.399Z,27.53
2018-12-29T18:18:19.700Z,30.47
2018-12-29T18:20:48.926Z,30.33
2018-12-29T18:23:18.083Z,28.63
2018-12-29T18:25:47.350Z,31.40
2018-12-29T18:28:16.582Z,31.17
2018-12-29T18:30:45.780Z,28.43
2018-12-29T18:33:15.384Z,30.43
2018-12-29T18:35:44.599Z,31.23
2018-12-29T18:38:13.826Z,32.00
2018-12-29T18:40:43.090Z,29.33
2018-12-29T18:43:12.288Z,32.93
2018-12-29T18:45:41.585Z,29.70
2018-12-29T18:48:11.138Z,30.50
2018-12-29T18:50:40.374Z,30.23
2018-12-29T18:53:09.607Z,34.50
2018-12-29T18:55:38.837Z,29.20
2018-12-29T18:58:08.095Z,29.30
2018-12-29T19:00:37.652Z,31.70
2018-12-29T19:03:06.900Z,26.70
2018-12-29T19:05:36.152Z,25.50
2018-12-29T19:08:05.459Z,31.23
2018-12-29T19:10:34.701Z,27.13
2018-12-29T19:13:04.369Z,27.27
2018-12-29T19:15:33.914Z,26.10
2018-12-29T19:18:03.202Z,30.73
2018-12-29T19:20:32.766Z,26.33
2018-12-29T19:23:02.286Z,24.00
2018-12-29T19:25:31.546Z,24.47
2018-12-29T19:28:01.101Z,27.33
2018-12-29T19:30:30.633Z,25.63
2018-12-29T19:33:00.287Z,25.50
2018-12-29T19:35:29.572Z,19.60
2018-12-29T19:37:58.852Z,21.57
2018-12-29T19:40:28.134Z,18.60
2018-12-29T19:42:57.799Z,21.33
2018-12-29T19:45:27.034Z,21.73
2018-12-29T19:47:56.613Z,18.30
2018-12-29T19:50:25.966Z,15.10
2018-12-29T19:52:55.336Z,18.40
2018-12-29T19:55:24.592Z,16.37
2018-12-29T19:57:53.931Z,15.97
2018-12-29T20:00:23.701Z,16.47
2018-12-29T20:02:53.296Z,16.67
2018-12-29T20:05:22.834Z,7.17
2018-12-29T20:07:52.165Z,5.93
2018-12-29T20:10:21.339Z,7.73
2018-12-29T20:12:50.595Z,9.53
2018-12-29T20:15:20.274Z,8.10
2018-12-29T20:17:49.481Z,6.27
2018-12-29T20:20:18.661Z,7.60
2018-12-29T20:22:47.903Z,6.00
2018-12-29T20:25:17.102Z,13.00
2018-12-29T20:27:46.684Z,11.63
2018-12-29T20:30:15.888Z,5.70
2018-12-29T20:32:45.107Z,9.30
2018-12-29T20:35:14.283Z,10.83
2018-12-29T20:37:43.520Z,7.97
2018-12-29T20:40:13.167Z,8.73
2018-12-29T20:42:42.427Z,8.13
2018-12-29T20:45:11.696Z,14.43
2018-12-29T20:47:40.930Z,17.10
2018-12-29T20:50:11.946Z,16.47
2018-12-29T20:52:41.116Z,11.07
2018-12-29T20:55:10.364Z,11.17
2018-12-29T20:57:39.577Z,12.93
2018-12-29T21:00:10.206Z,13.80
2018-12-29T21:02:39.464Z,20.20
2018-12-29T21:05:09.057Z,19.07
2018-12-29T21:07:38.286Z,24.83
2018-12-29T21:10:07.727Z,19.47
2018-12-29T21:12:36.979Z,19.33
2018-12-29T21:15:06.410Z,19.03
2018-12-29T21:17:35.666Z,15.47
2018-12-29T21:20:05.361Z,16.70
2018-12-29T21:22:34.611Z,15.77
2018-12-29T21:25:03.811Z,14.97
2018-12-29T21:27:33.081Z,16.37
2018-12-29T21:30:02.320Z,15.73
2018-12-29T21:32:31.753Z,13.10
2018-12-29T21:35:01.029Z,11.43
2018-12-29T21:37:30.316Z,12.97
2018-12-29T21:39:59.602Z,11.10
2018-12-29T21:42:28.897Z,13.70
2018-12-29T21:44:58.441Z,15.73
2018-12-29T21:47:27.689Z,14.63
2018-12-29T21:49:56.901Z,9.17
2018-12-29T21:52:26.140Z,13.20
2018-12-29T21:54:55.519Z,11.43
2018-12-29T21:57:24.799Z,10.37
2018-12-29T21:59:54.126Z,13.30
2018-12-29T22:02:23.415Z,12.27
2018-12-29T22:04:52.792Z,12.57
2018-12-29T22:07:22.085Z,11.77
2018-12-29T22:09:51.363Z,16.27
2018-12-29T22:12:20.596Z,10.63
2018-12-29T22:14:49.847Z,15.77
2018-12-29T22:17:19.152Z,14.07
2018-12-29T22:19:48.395Z,16.43
2018-12-29T22:22:17.648Z,13.47
2018-12-29T22:24:46.955Z,15.93
2018-12-29T22:27:16.185Z,12.10
2018-12-29T22:29:45.472Z,12.87
2018-12-29T22:32:14.733Z,18.47
2018-12-29T22:34:44.066Z,12.67
2018-12-29T22:37:13.659Z,11.70
2018-12-29T22:39:43.024Z,10.93
2018-12-29T22:42:12.295Z,13.30
2018-12-29T22:44:41.536Z,13.83
2018-12-29T22:47:10.799Z,18.00
2018-12-29T22:49:40.454Z,12.73
2018-12-29T22:52:09.709Z,11.90
2018-12-29T22:54:38.993Z,10.10
2018-12-29T22:57:08.231Z,12.10
2018-12-29T22:59:37.459Z,14.70
2018-12-29T23:02:07.027Z,13.97
2018-12-29T23:04:36.320Z,11.90
2018-12-29T23:07:05.889Z,11.83
2018-12-29T23:09:35.102Z,13.77
2018-12-29T23:12:04.381Z,18.70
2018-12-29T23:14:33.621Z,18.97
2018-12-29T23:17:03.215Z,14.60
2018-12-29T23:19:32.505Z,18.43
2018-12-29T23:22:01.740Z,12.37
2018-12-29T23:24:31.001Z,11.47
2018-12-29T23:27:00.303Z,14.50
2018-12-29T23:29:29.568Z,13.17
2018-12-29T23:31:58.715Z,17.50
2018-12-29T23:34:28.378Z,19.17
2018-12-29T23:36:57.614Z,14.27
2018-12-29T23:39:26.832Z,15.10
2018-12-29T23:41:56.387Z,16.67
2018-12-29T23:44:25.638Z,16.07
2018-12-29T23:46:55.012Z,17.53
2018-12-29T23:49:24.595Z,18.53
2018-12-29T23:51:54.319Z,16.37
2018-12-29T23:54:23.564Z,23.50
2018-12-29T23:56:53.107Z,14.13
2018-12-29T23:59:22.364Z,15.70
